createdAt,value
2019-03-31T00:00:43.312Z,7.43
2019-03-31T00:03:11.758Z,8.03
2019-03-31T00:05:40.228Z,6.57
2019-03-31T00:08:08.694Z,6.97
2019-03-31T00:10:37.142Z,7.83
2019-03-31T00:13:05.605Z,5.37
2019-03-31T00:15:34.501Z,5.77
2019-03-31T00:18:03.291Z,4.37
2019-03-31T00:20:31.758Z,7.47
2019-03-31T00:23:00.158Z,5.93
2019-03-31T00:25:28.670Z,6.93
2019-03-31T00:27:57.418Z,7.67
2019-03-31T00:30:26.153Z,8.47
2019-03-31T00:32:54.597Z,6.50
2019-03-31T00:35:23.042Z,5.53
2019-03-31T00:37:51.517Z,7.17
2019-03-31T00:40:19.965Z,6.17
2019-03-31T00:42:48.723Z,6.20
2019-03-31T00:45:17.607Z,7.20
2019-03-31T00:47:46.138Z,8.10
2019-03-31T00:50:14.587Z,6.30
2019-03-31T00:52:43.358Z,6.17
2019-03-31T00:55:11.804Z,6.30
2019-03-31T00:57:40.269Z,7.83
2019-03-31T01:00:11.187Z,6.10
2019-03-31T01:02:39.636Z,6.83
2019-03-31T01:05:08.322Z,6.97
2019-03-31T01:07:36.962Z,4.33
2019-03-31T01:10:06.118Z,3.77
2019-03-31T01:12:34.995Z,5.07
2019-03-31T01:15:05.442Z,5.07
2019-03-31T01:17:33.888Z,7.67
2019-03-31T01:20:02.470Z,6.20
2019-03-31T01:22:30.949Z,5.70
2019-03-31T01:24:59.461Z,5.40
2019-03-31T01:27:28.266Z,5.70
2019-03-31T01:29:56.742Z,8.60
2019-03-31T01:32:25.605Z,11.03
2019-03-31T01:34:54.078Z,5.50
2019-03-31T01:37:22.875Z,5.90
2019-03-31T01:39:51.355Z,6.13
2019-03-31T01:42:20.163Z,4.30
2019-03-31T01:44:49.063Z,4.90
2019-03-31T01:47:17.947Z,5.57
2019-03-31T01:49:46.417Z,5.30
2019-03-31T01:52:14.861Z,4.97
2019-03-31T01:54:43.303Z,4.77
2019-03-31T01:57:11.770Z,6.33
2019-03-31T01:59:40.535Z,3.97
2019-03-31T02:02:10.690Z,5.17
2019-03-31T02:04:39.301Z,5.90
2019-03-31T02:07:08.115Z,4.80
2019-03-31T02:09:36.940Z,5.57
2019-03-31T02:12:05.733Z,4.27
2019-03-31T02:14:34.599Z,3.97
2019-03-31T02:17:03.598Z,3.43
2019-03-31T02:19:32.063Z,6.20
2019-03-31T02:22:00.521Z,5.07
2019-03-31T02:24:29.060Z,7.23
2019-03-31T02:26:57.590Z,4.70
2019-03-31T02:29:26.030Z,4.70
2019-03-31T02:31:54.501Z,5.43
2019-03-31T02:34:23.262Z,4.03
2019-03-31T02:36:52.049Z,4.10
2019-03-31T02:39:20.485Z,4.40
2019-03-31T02:41:48.959Z,4.73
2019-03-31T02:44:17.398Z,4.73
2019-03-31T02:46:45.870Z,3.77
2019-03-31T02:49:14.664Z,3.13
2019-03-31T02:51:43.106Z,5.57
2019-03-31T02:54:11.651Z,4.13
2019-03-31T02:56:41.634Z,4.70
2019-03-31T02:59:12.115Z,5.30
2019-03-31T03:01:41.732Z,4.77
2019-03-31T03:04:10.630Z,6.97
2019-03-31T03:06:40.761Z,4.70
2019-03-31T03:09:09.238Z,4.53
2019-03-31T03:11:38.790Z,3.00
2019-03-31T03:14:08.975Z,4.87
2019-03-31T03:16:37.439Z,3.93
2019-03-31T03:19:05.877Z,3.33
2019-03-31T03:21:34.343Z,3.73
2019-03-31T03:24:02.783Z,2.90
2019-03-31T03:26:31.231Z,2.40
2019-03-31T03:28:59.710Z,4.90
2019-03-31T03:31:28.232Z,3.30
2019-03-31T03:33:56.752Z,3.40
2019-03-31T03:36:25.247Z,4.40
2019-03-31T03:38:53.709Z,2.70
2019-03-31T03:41:22.212Z,3.37
2019-03-31T03:43:56.048Z,3.43
2019-03-31T03:46:21.217Z,3.97
2019-03-31T03:48:49.721Z,4.63
2019-03-31T03:51:18.374Z,2.97
2019-03-31T03:53:46.815Z,3.20
2019-03-31T03:56:15.337Z,4.57
2019-03-31T03:58:43.816Z,4.00
2019-03-31T04:01:14.261Z,2.63
2019-03-31T04:03:42.781Z,5.70
2019-03-31T04:06:11.231Z,3.83
2019-03-31T04:08:39.777Z,4.80
2019-03-31T04:11:20.805Z,3.10
2019-03-31T04:13:47.499Z,2.97
2019-03-31T04:16:16.387Z,2.90
2019-03-31T04:18:44.832Z,2.23
2019-03-31T04:21:13.644Z,2.60
2019-03-31T04:23:42.163Z,2.77
2019-03-31T04:26:10.958Z,2.07
2019-03-31T04:28:39.544Z,2.87
2019-03-31T04:31:08.057Z,2.90
2019-03-31T04:33:50.646Z,2.43
2019-03-31T04:36:06.702Z,2.33
2019-03-31T04:38:35.146Z,3.93
2019-03-31T04:41:03.993Z,3.17
2019-03-31T04:43:32.758Z,2.57
2019-03-31T04:46:01.655Z,3.53
2019-03-31T04:48:30.543Z,3.70
2019-03-31T04:50:58.993Z,3.00
2019-03-31T04:53:27.797Z,2.57
2019-03-31T04:55:56.263Z,2.87
2019-03-31T04:58:24.701Z,2.67
2019-03-31T05:00:53.185Z,2.07
2019-03-31T05:03:21.717Z,3.17
2019-03-31T05:05:50.263Z,4.83
2019-03-31T05:08:18.706Z,4.23
2019-03-31T05:10:47.163Z,3.70
2019-03-31T05:13:15.697Z,3.20
2019-03-31T05:15:44.431Z,2.37
2019-03-31T05:18:13.239Z,2.77
2019-03-31T05:20:41.710Z,2.33
2019-03-31T05:23:10.166Z,2.50
2019-03-31T05:25:38.634Z,3.03
2019-03-31T05:28:07.078Z,5.03
2019-03-31T05:30:35.492Z,3.87
2019-03-31T05:33:04.423Z,2.70
2019-03-31T05:35:32.870Z,2.17
2019-03-31T05:38:01.694Z,4.17
2019-03-31T05:40:30.888Z,4.17
2019-03-31T05:42:59.978Z,4.40
2019-03-31T05:45:28.420Z,2.87
2019-03-31T05:47:56.960Z,2.17
2019-03-31T05:50:25.727Z,2.37
2019-03-31T05:52:54.470Z,3.30
2019-03-31T05:55:23.306Z,1.47
2019-03-31T05:57:51.752Z,2.40
2019-03-31T06:00:26.261Z,1.93
2019-03-31T06:02:54.706Z,2.00
2019-03-31T06:05:23.475Z,1.70
2019-03-31T06:07:51.942Z,2.23
2019-03-31T06:10:20.391Z,2.33
2019-03-31T06:12:48.846Z,2.10
2019-03-31T06:15:17.311Z,3.57
2019-03-31T06:17:45.760Z,3.13
2019-03-31T06:20:14.581Z,1.57
2019-03-31T06:22:43.377Z,1.57
2019-03-31T06:25:11.881Z,2.47
2019-03-31T06:27:40.353Z,1.97
2019-03-31T06:30:08.960Z,4.77
2019-03-31T06:32:37.409Z,6.47
2019-03-31T06:35:06.490Z,2.60
2019-03-31T06:37:34.978Z,5.30
2019-03-31T06:40:05.250Z,1.27
2019-03-31T06:42:33.765Z,2.13
2019-03-31T06:45:02.278Z,1.40
2019-03-31T06:47:31.139Z,2.37
2019-03-31T06:49:59.540Z,1.47
2019-03-31T06:52:28.053Z,2.20
2019-03-31T06:54:56.494Z,0.97
2019-03-31T06:57:24.947Z,1.00
2019-03-31T06:59:53.491Z,1.53
2019-03-31T07:02:22.070Z,2.80
2019-03-31T07:05:00.455Z,1.73
2019-03-31T07:07:23.667Z,1.93
2019-03-31T07:09:51.194Z,2.63
2019-03-31T07:12:19.679Z,2.43
2019-03-31T07:14:48.117Z,2.50
2019-03-31T07:17:16.573Z,2.90
2019-03-31T07:19:45.045Z,1.57
2019-03-31T07:22:13.488Z,2.00
2019-03-31T07:24:41.937Z,1.47
2019-03-31T07:27:10.402Z,3.47
2019-03-31T07:29:38.853Z,2.13
2019-03-31T07:32:07.331Z,1.30
2019-03-31T07:34:35.773Z,2.67
2019-03-31T07:37:04.218Z,1.47
2019-03-31T07:39:32.978Z,2.40
2019-03-31T07:42:02.121Z,1.90
2019-03-31T07:44:30.858Z,1.73
2019-03-31T07:46:59.582Z,1.90
2019-03-31T07:49:28.026Z,1.00
2019-03-31T07:51:56.489Z,1.23
2019-03-31T07:54:24.961Z,1.80
2019-03-31T07:56:53.398Z,1.93
2019-03-31T07:59:21.847Z,2.07
2019-03-31T08:01:50.721Z,1.90
2019-03-31T08:04:19.171Z,1.60
2019-03-31T08:06:47.645Z,1.27
2019-03-31T08:09:16.094Z,1.90
2019-03-31T08:11:44.548Z,2.97
2019-03-31T08:14:13.302Z,1.60
2019-03-31T08:16:42.211Z,3.07
2019-03-31T08:19:10.682Z,1.30
2019-03-31T08:21:39.133Z,1.90
2019-03-31T08:24:07.577Z,2.50
2019-03-31T08:26:36.060Z,2.57
2019-03-31T08:29:05.006Z,2.47
2019-03-31T08:31:33.798Z,1.60
2019-03-31T08:34:02.508Z,2.33
2019-03-31T08:36:30.960Z,2.17
2019-03-31T08:38:59.443Z,1.40
2019-03-31T08:41:28.252Z,1.97
2019-03-31T08:43:56.784Z,2.17
2019-03-31T08:46:25.264Z,1.23
2019-03-31T08:48:54.078Z,1.20
2019-03-31T08:51:22.552Z,2.03
2019-03-31T08:53:50.994Z,1.40
2019-03-31T08:56:19.859Z,2.47
2019-03-31T08:58:48.300Z,2.40
2019-03-31T09:01:18.391Z,4.07
2019-03-31T09:03:46.857Z,3.30
2019-03-31T09:06:15.318Z,1.43
2019-03-31T09:08:44.073Z,3.07
2019-03-31T09:11:12.556Z,2.07
2019-03-31T09:13:40.997Z,8.27
2019-03-31T09:16:09.833Z,1.60
2019-03-31T09:18:38.283Z,2.00
2019-03-31T09:21:06.806Z,1.37
2019-03-31T09:23:35.274Z,1.17
2019-03-31T09:26:03.793Z,1.50
2019-03-31T09:28:32.251Z,1.33
2019-03-31T09:31:01.024Z,2.97
2019-03-31T09:33:29.470Z,1.80
2019-03-31T09:35:58.316Z,1.30
2019-03-31T09:38:26.782Z,1.33
2019-03-31T09:40:55.237Z,1.10
2019-03-31T09:43:23.683Z,0.90
2019-03-31T09:45:52.161Z,1.47
2019-03-31T09:48:20.610Z,1.80
2019-03-31T09:50:49.066Z,1.17
2019-03-31T09:53:17.542Z,2.03
2019-03-31T09:55:46.057Z,1.77
2019-03-31T09:58:14.571Z,1.53
2019-03-31T10:00:48.180Z,3.97
2019-03-31T10:03:16.969Z,1.37
2019-03-31T10:05:48.008Z,2.67
2019-03-31T10:08:15.774Z,1.37
2019-03-31T10:10:44.370Z,1.83
2019-03-31T10:13:12.820Z,1.73
2019-03-31T10:15:41.295Z,1.00
2019-03-31T10:18:09.746Z,2.00
2019-03-31T10:20:38.193Z,1.10
2019-03-31T10:23:06.646Z,3.43
2019-03-31T10:25:35.330Z,1.83
2019-03-31T10:28:03.894Z,1.43
2019-03-31T10:30:34.816Z,1.07
2019-03-31T10:33:03.406Z,1.47
2019-03-31T10:35:31.901Z,0.90
2019-03-31T10:38:00.347Z,1.57
2019-03-31T10:40:28.801Z,1.13
2019-03-31T10:42:57.338Z,1.47
2019-03-31T10:45:25.931Z,1.77
2019-03-31T10:47:54.398Z,1.50
2019-03-31T10:50:22.916Z,1.57
2019-03-31T10:52:51.397Z,1.07
2019-03-31T10:55:19.927Z,1.00
2019-03-31T10:57:48.384Z,2.13
2019-03-31T11:00:20.093Z,1.70
2019-03-31T11:02:48.556Z,1.00
2019-03-31T11:05:17.085Z,1.70
2019-03-31T11:07:45.564Z,1.00
2019-03-31T11:10:14.085Z,0.97
2019-03-31T11:12:42.535Z,2.87
2019-03-31T11:15:11.093Z,1.73
2019-03-31T11:17:39.566Z,1.13
2019-03-31T11:20:08.155Z,0.70
2019-03-31T11:22:38.243Z,0.67
2019-03-31T11:25:20.181Z,1.00
2019-03-31T11:27:37.777Z,1.17
2019-03-31T11:30:08.165Z,0.63
2019-03-31T11:32:36.975Z,0.70
2019-03-31T11:35:06.562Z,1.63
2019-03-31T11:37:35.012Z,1.93
2019-03-31T11:40:05.203Z,0.70
2019-03-31T11:42:33.664Z,0.60
2019-03-31T11:45:02.146Z,0.53
2019-03-31T11:47:30.674Z,1.07
2019-03-31T11:49:59.137Z,3.43
2019-03-31T11:54:55.233Z,0.77
2019-03-31T11:57:23.681Z,1.97
2019-03-31T11:59:52.136Z,1.80
2019-03-31T12:02:27.414Z,0.87
2019-03-31T12:04:51.626Z,0.67
2019-03-31T12:07:27.955Z,1.00
2019-03-31T12:09:50.245Z,0.70
2019-03-31T12:12:18.748Z,1.00
2019-03-31T12:14:59.816Z,0.77
2019-03-31T12:17:17.429Z,3.23
2019-03-31T12:19:48.596Z,1.27
2019-03-31T12:22:16.173Z,0.70
2019-03-31T12:24:44.625Z,0.70
2019-03-31T12:27:13.115Z,1.40
2019-03-31T12:29:41.644Z,1.70
2019-03-31T12:32:10.108Z,1.20
2019-03-31T12:34:38.949Z,0.80
2019-03-31T12:37:07.825Z,0.70
2019-03-31T12:39:36.370Z,0.70
2019-03-31T12:42:05.170Z,1.27
2019-03-31T12:44:33.614Z,2.77
2019-03-31T12:47:02.089Z,2.10
2019-03-31T12:49:30.560Z,1.37
2019-03-31T12:51:59.338Z,0.93
2019-03-31T12:54:27.813Z,1.33
2019-03-31T12:56:56.714Z,0.90
2019-03-31T12:59:27.205Z,0.83
2019-03-31T13:01:55.507Z,0.83
2019-03-31T13:04:23.955Z,0.90
2019-03-31T13:06:52.408Z,0.83
2019-03-31T13:09:21.251Z,2.20
2019-03-31T13:11:50.541Z,2.13
2019-03-31T13:14:19.139Z,2.13
2019-03-31T13:16:47.682Z,1.03
2019-03-31T13:19:16.133Z,1.60
2019-03-31T13:21:44.881Z,1.23
2019-03-31T13:24:13.357Z,1.50
2019-03-31T13:26:42.165Z,1.40
2019-03-31T13:29:10.613Z,3.70
2019-03-31T13:31:39.066Z,0.93
2019-03-31T13:34:07.531Z,1.57
2019-03-31T13:36:36.282Z,1.17
2019-03-31T13:39:06.867Z,1.27
2019-03-31T13:41:35.322Z,2.40
2019-03-31T13:44:03.841Z,2.17
2019-03-31T13:46:32.378Z,2.73
2019-03-31T13:49:01.147Z,1.57
2019-03-31T13:51:29.617Z,2.40
2019-03-31T13:53:58.416Z,1.60
2019-03-31T13:56:28.005Z,1.30
2019-03-31T13:58:56.780Z,2.60
2019-03-31T14:01:25.232Z,1.23
2019-03-31T14:03:54.079Z,2.30
2019-03-31T14:06:22.530Z,1.33
2019-03-31T14:08:51.357Z,3.27
2019-03-31T14:11:21.689Z,1.40
2019-03-31T14:13:50.366Z,2.30
2019-03-31T14:16:18.917Z,2.00
2019-03-31T14:18:47.731Z,1.67
2019-03-31T14:21:16.177Z,1.77
2019-03-31T14:23:44.609Z,2.93
2019-03-31T14:26:13.086Z,2.30
2019-03-31T14:28:41.875Z,2.23
2019-03-31T14:31:10.398Z,2.30
2019-03-31T14:33:38.841Z,2.53
2019-03-31T14:36:07.319Z,2.37
2019-03-31T14:38:40.382Z,2.23
2019-03-31T14:41:06.290Z,1.87
2019-03-31T14:43:34.760Z,2.50
2019-03-31T14:46:03.207Z,1.70
2019-03-31T14:48:31.657Z,2.23
2019-03-31T14:51:00.217Z,5.10
2019-03-31T14:53:29.138Z,2.00
2019-03-31T14:55:57.590Z,3.30
2019-03-31T14:58:26.398Z,2.40
2019-03-31T15:00:54.859Z,4.33
2019-03-31T15:03:23.302Z,2.47
2019-03-31T15:05:51.770Z,3.13
2019-03-31T15:08:20.247Z,2.90
2019-03-31T15:10:48.701Z,2.80
2019-03-31T15:13:17.154Z,2.33
2019-03-31T15:15:45.976Z,3.87
2019-03-31T15:18:14.426Z,3.17
2019-03-31T15:20:42.882Z,3.13
2019-03-31T15:23:11.748Z,2.43
2019-03-31T15:25:43.002Z,2.83
2019-03-31T15:28:10.375Z,4.10
2019-03-31T15:30:39.217Z,3.20
2019-03-31T15:33:07.665Z,3.50
2019-03-31T15:35:37.889Z,3.37
2019-03-31T15:38:06.622Z,3.87
2019-03-31T15:40:35.067Z,3.03
2019-03-31T15:43:03.610Z,6.37
2019-03-31T15:45:32.057Z,3.93
2019-03-31T15:48:00.580Z,3.10
2019-03-31T15:50:29.125Z,5.23
2019-03-31T15:52:57.741Z,5.73
2019-03-31T15:55:26.186Z,3.43
2019-03-31T15:57:54.670Z,5.73
2019-03-31T16:00:23.550Z,4.27
2019-03-31T16:02:52.069Z,5.07
2019-03-31T16:05:20.620Z,6.73
2019-03-31T16:07:49.069Z,5.30
2019-03-31T16:10:17.685Z,4.50
2019-03-31T16:12:46.134Z,6.13
2019-03-31T16:15:14.990Z,3.50
2019-03-31T16:17:43.488Z,3.67
2019-03-31T16:20:12.174Z,6.47
2019-03-31T16:22:40.615Z,4.13
2019-03-31T16:25:10.866Z,5.07
2019-03-31T16:27:39.707Z,4.37
2019-03-31T16:30:08.663Z,4.10
2019-03-31T16:32:38.481Z,6.17
2019-03-31T16:35:06.995Z,4.27
2019-03-31T16:37:35.879Z,5.17
2019-03-31T16:40:06.396Z,4.20
2019-03-31T16:42:35.199Z,7.47
2019-03-31T16:45:05.592Z,2.93
2019-03-31T16:47:34.416Z,3.77
2019-03-31T16:50:03.709Z,3.77
2019-03-31T16:52:32.169Z,4.07
2019-03-31T16:55:00.652Z,3.93
2019-03-31T16:57:29.189Z,4.83
2019-03-31T16:59:57.646Z,3.60
2019-03-31T17:02:26.123Z,3.50
2019-03-31T17:04:54.915Z,3.37
2019-03-31T17:07:23.381Z,3.57
2019-03-31T17:09:52.246Z,3.37
2019-03-31T17:12:20.732Z,3.70
2019-03-31T17:14:49.179Z,2.67
2019-03-31T17:17:17.644Z,2.67
2019-03-31T17:19:46.402Z,3.63
2019-03-31T17:22:14.858Z,2.90
2019-03-31T17:24:43.702Z,3.93
2019-03-31T17:27:14.160Z,2.90
2019-03-31T17:29:42.317Z,2.30
2019-03-31T17:32:10.868Z,2.60
2019-03-31T17:34:39.409Z,2.40
2019-03-31T17:37:07.862Z,2.23
2019-03-31T17:39:36.321Z,2.13
2019-03-31T17:42:04.861Z,1.97
2019-03-31T17:44:33.342Z,1.90
2019-03-31T17:47:02.568Z,2.83
2019-03-31T17:49:31.017Z,3.70
2019-03-31T17:52:01.197Z,2.73
2019-03-31T17:54:29.660Z,5.20
2019-03-31T17:56:58.105Z,3.50
2019-03-31T17:59:26.602Z,2.53
2019-03-31T18:01:55.410Z,3.50
2019-03-31T18:04:24.182Z,2.63
2019-03-31T18:06:52.653Z,3.70
2019-03-31T18:09:21.106Z,5.17
2019-03-31T18:11:49.582Z,3.50
2019-03-31T18:14:18.032Z,5.03
2019-03-31T18:16:46.494Z,4.33
2019-03-31T18:19:14.970Z,4.70
2019-03-31T18:21:43.462Z,3.60
2019-03-31T18:24:11.917Z,3.30
2019-03-31T18:26:40.433Z,3.77
2019-03-31T18:29:08.911Z,3.60
2019-03-31T18:31:37.681Z,4.20
2019-03-31T18:34:06.230Z,3.37
2019-03-31T18:36:36.984Z,3.60
2019-03-31T18:39:06.898Z,3.67
2019-03-31T18:41:35.341Z,3.80
2019-03-31T18:44:03.978Z,5.23
2019-03-31T18:46:32.493Z,3.17
2019-03-31T18:49:00.967Z,6.13
2019-03-31T18:51:29.445Z,5.07
2019-03-31T18:53:59.533Z,4.30
2019-03-31T18:56:41.749Z,5.17
2019-03-31T18:59:11.906Z,3.87
2019-03-31T19:02:00.354Z,4.00
2019-03-31T19:04:36.679Z,5.90
2019-03-31T19:07:07.234Z,9.77
2019-03-31T19:09:55.972Z,10.50
2019-03-31T19:12:26.094Z,7.00
2019-03-31T19:15:04.934Z,3.73
2019-03-31T19:17:35.049Z,4.53
2019-03-31T19:20:05.822Z,4.40
2019-03-31T19:22:44.608Z,5.33
2019-03-31T19:25:14.763Z,4.30
2019-03-31T19:27:44.813Z,3.80
2019-03-31T19:30:15.882Z,5.60
2019-03-31T19:32:55.505Z,4.63
2019-03-31T19:35:33.335Z,6.20
2019-03-31T19:38:03.786Z,5.37
2019-03-31T19:41:03.385Z,5.60
2019-03-31T19:43:39.414Z,5.20
2019-03-31T19:46:27.663Z,5.50
2019-03-31T19:48:57.759Z,5.00
2019-03-31T19:51:30.555Z,6.50
2019-03-31T19:54:06.733Z,6.77
2019-03-31T19:56:37.146Z,6.13
2019-03-31T19:59:23.901Z,6.33
2019-03-31T20:01:54.408Z,4.53
2019-03-31T20:04:36.298Z,5.50
2019-03-31T20:07:15.665Z,4.67
2019-03-31T20:09:46.133Z,5.83
2019-03-31T20:12:25.792Z,5.90
2019-03-31T20:15:04.734Z,4.33
2019-03-31T20:17:37.695Z,6.53
2019-03-31T20:20:11.537Z,5.10
2019-03-31T20:22:56.644Z,5.60
2019-03-31T20:25:41.930Z,5.73
2019-03-31T20:28:12.022Z,5.13
2019-03-31T20:30:50.865Z,5.77
2019-03-31T20:33:23.683Z,5.03
2019-03-31T20:36:02.907Z,6.00
2019-03-31T20:38:38.861Z,4.00
2019-03-31T20:41:08.981Z,6.00
2019-03-31T20:43:45.454Z,5.50
2019-03-31T20:46:13.922Z,5.30
2019-03-31T20:48:42.377Z,6.40
2019-03-31T20:51:11.198Z,7.17
2019-03-31T20:53:39.651Z,8.80
2019-03-31T20:56:08.487Z,6.83
2019-03-31T20:58:36.968Z,5.50
2019-03-31T21:01:05.409Z,5.97
2019-03-31T21:03:33.858Z,5.47
2019-03-31T21:06:02.322Z,6.80
2019-03-31T21:08:30.771Z,7.30
2019-03-31T21:10:59.249Z,7.80
2019-03-31T21:13:27.699Z,7.40
2019-03-31T21:15:56.154Z,5.90
2019-03-31T21:18:24.630Z,9.23
2019-03-31T21:20:53.181Z,7.03
2019-03-31T21:23:21.634Z,6.67
2019-03-31T21:25:50.085Z,5.50
2019-03-31T21:28:18.553Z,6.97
2019-03-31T21:30:47.003Z,7.20
2019-03-31T21:33:15.455Z,6.27
2019-03-31T21:35:44.027Z,8.33
2019-03-31T21:38:12.562Z,8.07
2019-03-31T21:40:41.147Z,6.80
2019-03-31T21:43:09.621Z,9.07
2019-03-31T21:45:38.167Z,7.07
2019-03-31T21:48:07.079Z,6.90
2019-03-31T21:50:35.529Z,10.40
2019-03-31T21:53:04.075Z,7.30
2019-03-31T21:55:32.531Z,7.13
2019-03-31T21:58:00.984Z,7.30
2019-03-31T22:00:37.099Z,7.60
2019-03-31T22:03:05.693Z,8.13
2019-03-31T22:05:34.439Z,8.20
2019-03-31T22:08:04.023Z,8.00
2019-03-31T22:10:32.758Z,8.10
2019-03-31T22:13:01.218Z,8.33
2019-03-31T22:15:29.665Z,6.87
2019-03-31T22:17:58.149Z,7.87
2019-03-31T22:20:26.598Z,11.07
2019-03-31T22:22:55.342Z,9.87
2019-03-31T22:25:23.819Z,7.13
2019-03-31T22:27:52.264Z,7.87
2019-03-31T22:30:20.715Z,7.63
2019-03-31T22:32:49.196Z,7.83
2019-03-31T22:35:17.719Z,7.33
2019-03-31T22:37:46.170Z,8.40
2019-03-31T22:40:15.137Z,8.60
2019-03-31T22:42:43.589Z,8.80
2019-03-31T22:45:12.177Z,7.70
2019-03-31T22:47:40.970Z,7.83
2019-03-31T22:50:09.494Z,9.37
2019-03-31T22:52:37.942Z,8.33
2019-03-31T22:55:07.166Z,7.40
2019-03-31T22:57:35.617Z,8.47
2019-03-31T23:00:05.620Z,11.30
2019-03-31T23:02:34.089Z,7.60
2019-03-31T23:05:02.549Z,9.03
2019-03-31T23:07:31.019Z,8.37
2019-03-31T23:09:59.485Z,9.43
2019-03-31T23:12:28.235Z,9.43
2019-03-31T23:14:56.679Z,8.27
2019-03-31T23:17:25.149Z,6.77
2019-03-31T23:19:54.798Z,7.77
2019-03-31T23:22:23.245Z,7.97
2019-03-31T23:24:52.105Z,8.53
2019-03-31T23:27:20.624Z,8.87
2019-03-31T23:29:49.034Z,9.10
2019-03-31T23:32:17.541Z,6.97
2019-03-31T23:34:45.989Z,8.73
2019-03-31T23:37:14.429Z,7.60
2019-03-31T23:39:43.266Z,8.87
2019-03-31T23:42:12.059Z,7.83
2019-03-31T23:44:40.586Z,8.90
2019-03-31T23:47:09.058Z,8.70
2019-03-31T23:49:37.816Z,7.67
2019-03-31T23:52:06.254Z,8.83
2019-03-31T23:54:34.738Z,8.80
2019-03-31T23:57:03.188Z,8.13
2019-03-31T23:59:31.638Z,8.70
